createdAt,value
2022-11-27T00:00:46.590Z,195.43
2022-11-27T00:03:36.767Z,187.77
2022-11-27T00:06:28.838Z,188.18
2022-11-27T00:09:18.541Z,189.68
2022-11-27T00:12:08.750Z,188.07
2022-11-27T00:14:58.293Z,183.57
2022-11-27T00:17:47.832Z,182.98
2022-11-27T00:20:38.233Z,180.95
2022-11-27T00:23:27.976Z,178.43
2022-11-27T00:26:17.712Z,165.80
2022-11-27T00:29:09.071Z,160.50
2022-11-27T00:31:59.193Z,159.15
2022-11-27T00:34:48.896Z,154.93
2022-11-27T00:37:38.751Z,153.55
2022-11-27T00:40:28.420Z,154.15
2022-11-27T00:43:18.046Z,155.48
2022-11-27T00:46:08.076Z,150.32
2022-11-27T00:48:59.419Z,151.48
2022-11-27T00:51:48.999Z,148.02
2022-11-27T00:54:38.828Z,150.82
2022-11-27T00:57:33.114Z,143.40
2022-11-27T01:00:23.616Z,144.45
2022-11-27T01:03:13.485Z,139.52
2022-11-27T01:06:07.333Z,141.68
2022-11-27T01:08:57.094Z,145.90
2022-11-27T01:11:46.759Z,143.95
2022-11-27T01:14:36.723Z,137.57
2022-11-27T01:17:26.498Z,136.65
2022-11-27T01:20:16.022Z,139.10
2022-11-27T01:23:05.748Z,135.32
2022-11-27T01:25:55.417Z,133.40
2022-11-27T01:28:45.838Z,117.70
2022-11-27T01:31:36.392Z,128.82
2022-11-27T01:34:25.811Z,128.38
2022-11-27T01:37:15.270Z,129.10
2022-11-27T01:40:05.082Z,127.80
2022-11-27T01:42:54.387Z,128.30
2022-11-27T01:45:46.700Z,121.10
2022-11-27T01:48:36.075Z,103.27
2022-11-27T01:51:26.312Z,118.13
2022-11-27T01:54:18.428Z,120.65
2022-11-27T01:57:27.430Z,98.15
2022-11-27T02:00:20.576Z,115.47
2022-11-27T02:03:10.465Z,108.78
2022-11-27T02:06:01.334Z,114.63
2022-11-27T02:08:53.548Z,111.72
2022-11-27T02:12:26.714Z,88.53
2022-11-27T02:15:27.918Z,87.53
2022-11-27T02:18:47.172Z,106.57
2022-11-27T02:21:55.568Z,91.40
2022-11-27T02:24:57.673Z,93.22
2022-11-27T02:28:18.611Z,99.40
2022-11-27T02:31:18.900Z,88.10
2022-11-27T02:34:24.616Z,89.05
2022-11-27T02:37:51.218Z,85.10
2022-11-27T02:41:12.459Z,94.47
2022-11-27T02:44:03.942Z,78.18
2022-11-27T02:46:54.817Z,93.22
2022-11-27T02:49:46.035Z,81.55
2022-11-27T02:52:35.672Z,87.75
2022-11-27T02:55:28.471Z,82.95
2022-11-27T02:58:29.172Z,66.22
2022-11-27T03:01:21.682Z,80.38
2022-11-27T03:04:16.183Z,67.55
2022-11-27T03:07:12.467Z,78.80
2022-11-27T03:10:09.865Z,67.85
2022-11-27T03:13:00.585Z,77.90
2022-11-27T03:16:11.941Z,65.65
2022-11-27T03:19:13.364Z,62.83
2022-11-27T03:22:04.157Z,61.72
2022-11-27T03:24:54.532Z,66.03
2022-11-27T03:28:10.872Z,61.65
2022-11-27T03:31:01.246Z,58.38
2022-11-27T03:33:51.867Z,61.22
2022-11-27T03:36:41.588Z,69.30
2022-11-27T03:39:32.454Z,60.42
2022-11-27T03:42:40.740Z,55.03
2022-11-27T03:45:36.535Z,53.72
2022-11-27T03:48:45.535Z,53.15
2022-11-27T03:51:45.152Z,56.33
2022-11-27T03:54:52.420Z,52.97
2022-11-27T03:58:08.675Z,50.88
2022-11-27T04:01:01.201Z,50.10
2022-11-27T04:03:50.873Z,44.78
2022-11-27T04:06:40.527Z,51.83
2022-11-27T04:09:30.292Z,48.45
2022-11-27T04:12:19.908Z,47.60
2022-11-27T04:15:09.880Z,43.75
2022-11-27T04:17:59.752Z,45.65
2022-11-27T04:20:49.312Z,47.35
2022-11-27T04:23:39.675Z,46.08
2022-11-27T04:26:29.186Z,42.67
2022-11-27T04:29:19.077Z,42.60
2022-11-27T04:32:08.964Z,41.50
2022-11-27T04:34:58.855Z,42.65
2022-11-27T04:37:48.454Z,39.67
2022-11-27T04:40:37.993Z,38.83
2022-11-27T04:43:27.894Z,41.92
2022-11-27T04:46:17.468Z,37.38
2022-11-27T04:49:07.351Z,39.72
2022-11-27T04:51:57.091Z,37.10
2022-11-27T04:54:47.139Z,36.05
2022-11-27T04:57:37.172Z,34.13
2022-11-27T05:00:26.781Z,34.72
2022-11-27T05:03:16.586Z,32.85
2022-11-27T05:06:06.357Z,32.25
2022-11-27T05:09:03.036Z,34.70
2022-11-27T05:11:52.538Z,33.10
2022-11-27T05:14:43.589Z,33.35
2022-11-27T05:17:33.417Z,33.17
2022-11-27T05:20:23.325Z,30.58
2022-11-27T05:23:13.140Z,30.65
2022-11-27T05:26:02.911Z,30.92
2022-11-27T05:28:52.418Z,31.42
2022-11-27T05:31:42.751Z,30.95
2022-11-27T05:34:32.476Z,30.02
2022-11-27T05:37:21.982Z,31.08
2022-11-27T05:40:12.133Z,30.13
2022-11-27T05:43:01.602Z,28.88
2022-11-27T05:45:51.094Z,29.45
2022-11-27T05:48:41.172Z,28.67
2022-11-27T05:51:30.875Z,27.63
2022-11-27T05:54:21.273Z,28.20
2022-11-27T05:57:10.825Z,27.75
2022-11-27T06:00:00.801Z,27.27
2022-11-27T06:02:50.563Z,26.98
2022-11-27T06:05:44.134Z,25.85
2022-11-27T06:08:33.650Z,26.65
2022-11-27T06:11:26.803Z,25.10
2022-11-27T06:17:06.268Z,25.30
2022-11-27T06:19:55.892Z,25.52
2022-11-27T06:22:45.955Z,23.95
2022-11-27T06:25:35.346Z,25.23
2022-11-27T06:28:24.823Z,24.55
2022-11-27T06:31:21.171Z,24.30
2022-11-27T06:34:13.475Z,24.45
2022-11-27T06:37:03.014Z,23.35
2022-11-27T06:39:53.011Z,24.02
2022-11-27T06:42:42.721Z,23.35
2022-11-27T06:45:32.626Z,22.83
2022-11-27T06:48:22.135Z,23.25
2022-11-27T06:51:13.891Z,23.05
2022-11-27T06:54:04.834Z,22.35
2022-11-27T06:56:55.092Z,21.60
2022-11-27T06:59:44.688Z,21.42
2022-11-27T07:02:34.491Z,22.38
2022-11-27T07:05:25.989Z,21.85
2022-11-27T07:08:15.594Z,21.63
2022-11-27T07:11:35.267Z,21.95
2022-11-27T07:14:24.789Z,20.90
2022-11-27T07:17:14.417Z,21.50
2022-11-27T07:20:04.194Z,20.90
2022-11-27T07:22:53.969Z,21.00
2022-11-27T07:25:43.577Z,21.17
2022-11-27T07:28:33.060Z,19.35
2022-11-27T07:31:25.086Z,20.55
2022-11-27T07:34:19.960Z,19.67
2022-11-27T07:37:11.309Z,20.67
2022-11-27T07:40:03.025Z,19.58
2022-11-27T07:42:53.110Z,20.35
2022-11-27T07:45:42.707Z,18.73
2022-11-27T07:48:32.243Z,18.48
2022-11-27T07:51:23.597Z,18.17
2022-11-27T07:54:13.266Z,19.33
2022-11-27T07:57:02.795Z,18.35
2022-11-27T07:59:52.700Z,18.83
2022-11-27T08:02:42.471Z,17.45
2022-11-27T08:05:36.767Z,18.13
2022-11-27T08:08:26.690Z,17.55
2022-11-27T08:11:24.747Z,17.23
2022-11-27T08:14:15.310Z,16.83
2022-11-27T08:17:05.089Z,17.88
2022-11-27T08:19:54.613Z,17.98
2022-11-27T08:22:44.549Z,16.65
2022-11-27T08:25:36.025Z,17.02
2022-11-27T08:28:25.582Z,17.70
2022-11-27T08:31:16.795Z,17.25
2022-11-27T08:34:06.475Z,16.77
2022-11-27T08:36:55.962Z,16.67
2022-11-27T08:39:45.576Z,17.55
2022-11-27T08:42:35.266Z,16.88
2022-11-27T08:45:25.640Z,16.83
2022-11-27T08:48:15.198Z,15.93
2022-11-27T08:51:12.870Z,16.67
2022-11-27T08:54:02.428Z,16.20
2022-11-27T08:56:54.150Z,17.05
2022-11-27T08:59:43.731Z,14.95
2022-11-27T09:02:34.337Z,16.40
2022-11-27T09:05:24.018Z,15.70
2022-11-27T09:08:17.756Z,15.65
2022-11-27T09:11:07.995Z,15.75
2022-11-27T09:13:57.652Z,15.05
2022-11-27T09:16:47.227Z,15.30
2022-11-27T09:19:36.793Z,14.70
2022-11-27T09:22:26.231Z,15.15
2022-11-27T09:25:15.791Z,15.40
2022-11-27T09:28:05.190Z,15.32
2022-11-27T09:31:02.964Z,15.13
2022-11-27T09:33:52.517Z,15.68
2022-11-27T09:36:42.082Z,15.00
2022-11-27T09:39:34.951Z,15.25
2022-11-27T09:42:39.411Z,14.73
2022-11-27T09:45:29.177Z,14.63
2022-11-27T09:48:37.011Z,14.77
2022-11-27T09:51:45.280Z,13.82
2022-11-27T09:54:52.448Z,14.55
2022-11-27T09:57:43.152Z,13.82
2022-11-27T10:00:33.090Z,14.48
2022-11-27T10:03:27.755Z,14.30
2022-11-27T10:06:29.582Z,13.77
2022-11-27T10:09:26.917Z,14.38
2022-11-27T10:12:37.699Z,13.35
2022-11-27T10:15:48.257Z,12.93
2022-11-27T10:18:49.367Z,13.40
2022-11-27T10:22:03.411Z,13.15
2022-11-27T10:24:58.798Z,13.88
2022-11-27T10:28:26.048Z,13.38
2022-11-27T10:31:23.853Z,12.90
2022-11-27T10:35:03.751Z,13.88
2022-11-27T10:38:08.408Z,12.57
2022-11-27T10:41:34.370Z,13.25
2022-11-27T10:44:29.679Z,13.60
2022-11-27T10:47:22.431Z,13.68
2022-11-27T10:50:19.969Z,12.93
2022-11-27T10:53:13.091Z,13.30
2022-11-27T10:56:17.510Z,13.10
2022-11-27T10:59:33.056Z,13.00
2022-11-27T11:02:36.381Z,12.68
2022-11-27T11:05:51.024Z,12.70
2022-11-27T11:08:38.311Z,12.65
2022-11-27T11:11:28.610Z,11.80
2022-11-27T11:14:24.291Z,13.02
2022-11-27T11:17:19.224Z,12.80
2022-11-27T11:20:24.001Z,12.07
2022-11-27T11:23:26.950Z,12.60
2022-11-27T11:26:33.335Z,12.48
2022-11-27T11:29:36.738Z,12.73
2022-11-27T11:32:38.107Z,12.23
2022-11-27T11:35:35.774Z,13.95
2022-11-27T11:38:33.776Z,12.32
2022-11-27T11:41:24.931Z,13.30
2022-11-27T11:44:38.301Z,12.27
2022-11-27T11:47:28.228Z,11.93
2022-11-27T11:50:27.214Z,11.75
2022-11-27T11:53:39.914Z,12.23
2022-11-27T11:56:46.772Z,12.68
2022-11-27T11:59:49.774Z,12.45
2022-11-27T12:03:00.753Z,12.88
2022-11-27T12:06:14.371Z,12.50
2022-11-27T12:09:12.869Z,12.02
2022-11-27T12:12:27.568Z,11.73
2022-11-27T12:15:24.868Z,12.32
2022-11-27T12:18:24.190Z,12.60
2022-11-27T12:21:17.857Z,12.30
2022-11-27T12:24:31.930Z,11.40
2022-11-27T12:27:58.554Z,11.40
2022-11-27T12:30:57.270Z,11.57
2022-11-27T12:33:49.511Z,11.57
2022-11-27T12:37:33.490Z,12.45
2022-11-27T12:40:46.610Z,10.80
2022-11-27T12:43:43.010Z,11.18
2022-11-27T12:46:35.250Z,11.30
2022-11-27T12:49:35.595Z,11.48
2022-11-27T12:52:36.209Z,11.07
2022-11-27T12:55:32.608Z,11.40
2022-11-27T12:58:30.552Z,10.82
2022-11-27T13:01:32.018Z,10.82
2022-11-27T13:04:37.938Z,11.43
2022-11-27T13:07:50.960Z,10.75
2022-11-27T13:10:46.469Z,9.97
2022-11-27T13:13:41.945Z,9.85
2022-11-27T13:16:44.529Z,11.45
2022-11-27T13:19:36.657Z,10.67
2022-11-27T13:22:33.285Z,9.52
2022-11-27T13:25:23.596Z,9.50
2022-11-27T13:28:47.812Z,10.02
2022-11-27T13:34:32.390Z,9.18
2022-11-27T13:37:30.237Z,9.80
2022-11-27T13:40:25.159Z,9.77
2022-11-27T13:43:45.511Z,10.02
2022-11-27T13:46:47.405Z,9.55
2022-11-27T13:49:39.235Z,9.65
2022-11-27T13:52:30.740Z,9.98
2022-11-27T13:55:35.319Z,9.65
2022-11-27T13:58:40.293Z,8.93
2022-11-27T14:01:29.733Z,8.77
2022-11-27T14:04:19.343Z,9.90
2022-11-27T14:07:12.952Z,10.30
2022-11-27T14:10:32.097Z,9.85
2022-11-27T14:13:27.417Z,9.07
2022-11-27T14:16:36.203Z,10.02
2022-11-27T14:19:35.332Z,9.25
2022-11-27T14:26:23.461Z,9.35
2022-11-27T14:29:13.732Z,8.10
2022-11-27T14:32:04.532Z,9.27
2022-11-27T14:34:54.104Z,12.48
2022-11-27T14:37:44.484Z,10.55
2022-11-27T14:40:34.045Z,12.00
2022-11-27T14:43:29.492Z,12.80
2022-11-27T14:46:23.393Z,12.32
2022-11-27T14:49:22.781Z,12.45
2022-11-27T14:52:16.902Z,11.98
2022-11-27T14:55:13.501Z,10.63
2022-11-27T14:58:03.391Z,11.05
2022-11-27T15:00:57.476Z,10.60
2022-11-27T15:03:57.738Z,10.13
2022-11-27T15:06:48.213Z,9.55
2022-11-27T15:09:38.310Z,9.60
2022-11-27T15:12:31.943Z,9.82
2022-11-27T15:15:29.812Z,10.55
2022-11-27T15:18:24.286Z,8.93
2022-11-27T15:21:19.491Z,9.65
2022-11-27T15:24:40.838Z,10.18
2022-11-27T15:27:33.994Z,9.50
2022-11-27T15:30:23.907Z,9.43
2022-11-27T15:33:35.227Z,9.73
2022-11-27T15:36:25.038Z,9.40
2022-11-27T15:39:47.113Z,9.48
2022-11-27T15:42:37.059Z,9.13
2022-11-27T15:45:34.027Z,9.43
2022-11-27T15:48:24.023Z,8.60
2022-11-27T15:51:14.132Z,8.93
2022-11-27T15:54:03.818Z,8.60
2022-11-27T15:56:53.419Z,8.95
2022-11-27T15:59:42.898Z,8.55
2022-11-27T16:02:32.729Z,8.38
2022-11-27T16:05:22.837Z,8.93
2022-11-27T16:08:12.394Z,8.70
2022-11-27T16:11:03.787Z,8.25
2022-11-27T16:13:55.811Z,8.63
2022-11-27T16:16:45.255Z,7.95
2022-11-27T16:19:34.854Z,8.93
2022-11-27T16:22:24.466Z,7.93
2022-11-27T16:25:17.389Z,7.57
2022-11-27T16:28:06.853Z,7.97
2022-11-27T16:30:58.369Z,8.25
2022-11-27T16:33:48.310Z,8.05
2022-11-27T16:36:44.429Z,7.95
2022-11-27T16:39:36.368Z,8.02
2022-11-27T16:42:25.949Z,8.27
2022-11-27T16:45:15.891Z,7.68
2022-11-27T16:48:06.212Z,7.50
2022-11-27T16:51:07.809Z,8.02
2022-11-27T16:53:59.837Z,7.05
2022-11-27T16:56:49.475Z,7.60
2022-11-27T16:59:39.489Z,7.68
2022-11-27T17:02:30.140Z,7.15
2022-11-27T17:05:20.142Z,7.40
2022-11-27T17:08:09.868Z,8.00
2022-11-27T17:11:00.801Z,7.22
2022-11-27T17:13:53.785Z,6.95
2022-11-27T17:16:43.989Z,7.55
2022-11-27T17:19:33.730Z,7.68
2022-11-27T17:22:23.695Z,7.80
2022-11-27T17:25:13.329Z,7.05
2022-11-27T17:28:03.642Z,7.30
2022-11-27T17:30:56.230Z,7.32
2022-11-27T17:33:46.110Z,7.30
2022-11-27T17:36:37.486Z,7.38
2022-11-27T17:39:28.390Z,9.57
2022-11-27T17:42:22.476Z,7.72
2022-11-27T17:45:12.851Z,8.52
2022-11-27T17:48:03.141Z,8.68
2022-11-27T17:50:53.729Z,8.52
2022-11-27T17:53:43.429Z,11.82
2022-11-27T17:56:33.969Z,8.25
2022-11-27T17:59:24.474Z,9.68
2022-11-27T18:02:14.244Z,9.93
2022-11-27T18:05:04.540Z,9.18
2022-11-27T18:07:55.494Z,9.70
2022-11-27T18:10:45.312Z,9.05
2022-11-27T18:13:35.395Z,9.60
2022-11-27T18:16:32.392Z,9.38
2022-11-27T18:19:22.773Z,10.57
2022-11-27T18:22:15.490Z,8.93
2022-11-27T18:25:05.465Z,9.52
2022-11-27T18:27:54.931Z,11.02
2022-11-27T18:30:44.530Z,12.13
2022-11-27T18:33:34.131Z,11.82
2022-11-27T18:36:24.206Z,13.00
2022-11-27T18:39:14.142Z,12.68
2022-11-27T18:42:05.955Z,13.32
2022-11-27T18:44:55.650Z,12.32
2022-11-27T18:47:45.629Z,11.27
2022-11-27T18:50:36.352Z,11.32
2022-11-27T18:53:26.272Z,12.40
2022-11-27T18:56:19.715Z,11.23
2022-11-27T19:01:59.743Z,10.80
2022-11-27T19:04:49.465Z,10.85
2022-11-27T19:07:39.694Z,10.75
2022-11-27T19:10:29.471Z,14.98
2022-11-27T19:13:19.516Z,15.00
2022-11-27T19:16:18.566Z,14.90
2022-11-27T19:19:16.841Z,14.63
2022-11-27T19:22:21.037Z,13.82
2022-11-27T19:25:11.074Z,13.82
2022-11-27T19:28:00.834Z,12.43
2022-11-27T19:30:50.206Z,14.73
2022-11-27T19:33:41.412Z,12.75
2022-11-27T19:36:32.873Z,14.20
2022-11-27T19:39:22.392Z,17.02
2022-11-27T19:42:12.257Z,17.15
2022-11-27T19:45:01.756Z,16.15
2022-11-27T19:47:55.497Z,15.35
2022-11-27T19:50:46.741Z,14.25
2022-11-27T19:53:36.862Z,15.77
2022-11-27T19:56:28.946Z,14.00
2022-11-27T19:59:24.203Z,14.05
2022-11-27T20:02:16.550Z,14.32
2022-11-27T20:05:06.532Z,14.93
2022-11-27T20:07:56.905Z,15.05
2022-11-27T20:10:51.813Z,14.45
2022-11-27T20:13:41.719Z,13.63
2022-11-27T20:16:31.659Z,14.38
2022-11-27T20:19:21.438Z,14.00
2022-11-27T20:22:12.034Z,12.55
2022-11-27T20:25:19.058Z,13.18
2022-11-27T20:28:10.172Z,13.48
2022-11-27T20:31:03.133Z,12.90
2022-11-27T20:33:55.140Z,13.13
2022-11-27T20:36:44.895Z,11.73
2022-11-27T20:39:36.175Z,13.00
2022-11-27T20:42:25.830Z,13.32
2022-11-27T20:45:20.183Z,11.63
2022-11-27T20:48:12.370Z,11.57
2022-11-27T20:51:15.823Z,12.07
2022-11-27T20:54:06.451Z,12.13
2022-11-27T20:56:56.230Z,12.55
2022-11-27T20:59:45.862Z,11.13
2022-11-27T21:02:37.784Z,10.70
2022-11-27T21:05:27.166Z,11.05
2022-11-27T21:08:17.249Z,11.75
2022-11-27T21:11:17.969Z,10.05
2022-11-27T21:14:10.713Z,11.00
2022-11-27T21:17:04.551Z,11.35
2022-11-27T21:19:56.630Z,11.07
2022-11-27T21:22:46.231Z,11.15
2022-11-27T21:25:35.897Z,10.00
2022-11-27T21:28:26.390Z,10.13
2022-11-27T21:31:19.214Z,10.50
2022-11-27T21:34:10.530Z,10.18
2022-11-27T21:37:00.179Z,10.32
2022-11-27T21:39:51.055Z,10.90
2022-11-27T21:42:44.512Z,9.95
2022-11-27T21:45:38.632Z,10.02
2022-11-27T21:48:28.509Z,9.98
2022-11-27T21:51:22.350Z,9.93
2022-11-27T21:54:16.186Z,9.63
2022-11-27T21:57:05.788Z,10.38
2022-11-27T21:59:55.754Z,9.80
2022-11-27T22:02:46.426Z,9.57
2022-11-27T22:05:36.608Z,10.07
2022-11-27T22:08:26.107Z,10.20
2022-11-27T22:11:19.995Z,9.32
2022-11-27T22:14:11.987Z,10.20
2022-11-27T22:17:01.757Z,10.07
2022-11-27T22:19:51.568Z,9.60
2022-11-27T22:22:40.972Z,10.15
2022-11-27T22:25:30.581Z,9.95
2022-11-27T22:28:20.355Z,9.82
2022-11-27T22:31:23.021Z,9.32
2022-11-27T22:34:12.590Z,10.13
2022-11-27T22:37:03.083Z,9.18
2022-11-27T22:39:52.611Z,9.32
2022-11-27T22:42:42.507Z,10.00
2022-11-27T22:45:32.490Z,8.90
2022-11-27T22:48:23.174Z,9.23
2022-11-27T22:51:13.234Z,10.00
2022-11-27T22:54:04.851Z,9.73
2022-11-27T22:56:55.434Z,9.48
2022-11-27T22:59:45.083Z,9.23
2022-11-27T23:02:35.048Z,9.35
2022-11-27T23:05:24.612Z,8.43
2022-11-27T23:08:15.099Z,8.98
2022-11-27T23:11:07.394Z,8.57
2022-11-27T23:13:59.273Z,9.55
2022-11-27T23:16:48.902Z,9.13
2022-11-27T23:19:38.554Z,8.15
2022-11-27T23:22:28.313Z,9.25
2022-11-27T23:25:18.133Z,8.02
2022-11-27T23:28:08.551Z,8.90
2022-11-27T23:31:15.604Z,9.00
2022-11-27T23:34:12.701Z,8.38
2022-11-27T23:37:02.212Z,8.52
2022-11-27T23:39:52.030Z,8.00
2022-11-27T23:42:42.026Z,8.95
2022-11-27T23:45:31.690Z,9.15
2022-11-27T23:48:21.626Z,8.23
2022-11-27T23:51:16.056Z,8.02
2022-11-27T23:54:09.712Z,8.68
2022-11-27T23:56:59.251Z,8.45
2022-11-27T23:59:48.872Z,8.45
